createdAt,value
2018-12-16T00:02:53.172Z,26.13
2018-12-16T00:05:28.199Z,30.63
2018-12-16T00:08:02.296Z,27.93
2018-12-16T00:10:37.408Z,27.20
2018-12-16T00:13:12.196Z,28.37
2018-12-16T00:15:46.747Z,29.47
2018-12-16T00:18:24.801Z,29.77
2018-12-16T00:20:59.074Z,28.43
2018-12-16T00:23:33.097Z,23.50
2018-12-16T00:26:07.260Z,24.43
2018-12-16T00:28:41.365Z,32.17
2018-12-16T00:31:15.735Z,28.03
2018-12-16T00:33:49.780Z,31.40
2018-12-16T00:36:24.083Z,30.07
2018-12-16T00:38:58.251Z,32.13
2018-12-16T00:41:32.367Z,31.80
2018-12-16T00:44:07.227Z,31.73
2018-12-16T00:46:41.355Z,27.97
2018-12-16T00:49:19.163Z,29.67
2018-12-16T00:51:53.477Z,25.57
2018-12-16T00:54:29.092Z,28.20
2018-12-16T00:57:07.492Z,32.80
2018-12-16T00:59:41.659Z,30.50
2018-12-16T01:02:20.613Z,31.37
2018-12-16T01:07:27.643Z,31.20
2018-12-16T01:10:01.703Z,28.23
2018-12-16T01:12:35.979Z,27.90
2018-12-16T01:15:14.766Z,28.83
2018-12-16T01:17:49.023Z,29.30
2018-12-16T01:20:22.910Z,30.83
2018-12-16T01:22:57.301Z,31.30
2018-12-16T01:25:31.382Z,27.57
2018-12-16T01:28:05.448Z,30.27
2018-12-16T01:30:40.235Z,30.60
2018-12-16T01:33:14.396Z,28.37
2018-12-16T01:35:48.456Z,28.97
2018-12-16T01:38:22.416Z,27.30
2018-12-16T01:40:56.632Z,26.83
2018-12-16T01:43:30.959Z,29.37
2018-12-16T01:46:05.070Z,25.93
2018-12-16T01:48:38.974Z,30.33
2018-12-16T01:51:13.023Z,27.10
2018-12-16T01:53:51.403Z,29.03
2018-12-16T01:56:29.229Z,25.73
2018-12-16T01:59:03.102Z,28.07
2018-12-16T02:01:39.135Z,30.67
2018-12-16T02:04:13.329Z,28.83
2018-12-16T02:06:47.427Z,30.03
2018-12-16T02:09:21.392Z,27.10
2018-12-16T02:11:55.587Z,32.63
2018-12-16T02:14:29.955Z,27.93
2018-12-16T02:17:03.783Z,29.37
2018-12-16T02:19:38.160Z,25.63
2018-12-16T02:22:12.394Z,28.53
2018-12-16T02:24:46.729Z,26.83
2018-12-16T02:27:20.722Z,32.67
2018-12-16T02:29:58.710Z,26.13
2018-12-16T02:32:32.748Z,29.70
2018-12-16T02:35:07.613Z,26.97
2018-12-16T02:37:41.498Z,27.67
2018-12-16T02:40:15.637Z,29.77
2018-12-16T02:42:49.665Z,29.30
2018-12-16T02:45:23.955Z,28.67
2018-12-16T02:47:58.771Z,27.73
2018-12-16T02:50:32.709Z,27.47
2018-12-16T02:53:07.584Z,27.13
2018-12-16T02:55:42.240Z,29.90
2018-12-16T02:58:16.107Z,29.90
2018-12-16T03:00:50.262Z,29.73
2018-12-16T03:03:24.277Z,27.37
2018-12-16T03:05:59.006Z,28.70
2018-12-16T03:08:33.045Z,26.17
2018-12-16T03:18:45.509Z,28.33
2018-12-16T03:26:25.191Z,25.87
2018-12-16T03:28:59.257Z,25.53
2018-12-16T03:31:33.451Z,27.63
2018-12-16T03:34:08.282Z,25.50
2018-12-16T03:36:42.549Z,28.73
2018-12-16T03:39:16.827Z,28.50
2018-12-16T03:41:51.180Z,27.00
2018-12-16T03:44:25.200Z,25.00
2018-12-16T03:46:59.202Z,30.17
2018-12-16T03:49:40.218Z,31.80
2018-12-16T03:52:14.079Z,29.57
2018-12-16T03:54:52.304Z,24.13
2018-12-16T03:57:26.757Z,28.77
2018-12-16T04:00:00.807Z,24.13
2018-12-16T04:02:35.038Z,25.80
2018-12-16T04:05:09.379Z,26.47
2018-12-16T04:07:43.475Z,25.57
2018-12-16T04:10:17.767Z,25.17
2018-12-16T04:12:53.240Z,27.63
2018-12-16T04:15:27.231Z,26.77
2018-12-16T04:18:01.420Z,32.47
2018-12-16T04:20:35.496Z,28.30
2018-12-16T04:23:09.721Z,25.23
2018-12-16T04:25:47.810Z,27.80
2018-12-16T04:28:21.712Z,27.87
2018-12-16T04:30:56.501Z,26.83
2018-12-16T04:33:30.531Z,26.23
2018-12-16T04:36:04.525Z,28.77
2018-12-16T04:38:38.514Z,27.47
2018-12-16T04:41:17.172Z,27.60
2018-12-16T04:43:55.803Z,31.03
2018-12-16T04:46:29.812Z,29.27
2018-12-16T04:49:04.613Z,27.50
2018-12-16T04:51:39.390Z,26.70
2018-12-16T04:54:13.476Z,27.03
2018-12-16T04:56:47.462Z,26.30
2018-12-16T04:59:21.465Z,27.07
2018-12-16T05:01:55.615Z,26.37
2018-12-16T05:04:29.831Z,27.23
2018-12-16T05:07:03.942Z,27.67
2018-12-16T05:09:38.063Z,26.87
2018-12-16T05:12:12.184Z,24.87
2018-12-16T05:14:46.188Z,29.00
2018-12-16T05:17:20.435Z,24.57
2018-12-16T05:19:54.493Z,23.73
2018-12-16T05:22:29.634Z,27.60
2018-12-16T05:25:04.658Z,26.67
2018-12-16T05:30:12.073Z,26.73
2018-12-16T05:32:46.731Z,28.70
2018-12-16T05:35:20.703Z,30.47
2018-12-16T05:37:54.859Z,26.70
2018-12-16T05:40:29.272Z,29.30
2018-12-16T05:43:03.971Z,25.47
2018-12-16T05:45:37.980Z,27.27
2018-12-16T05:48:12.089Z,25.80
2018-12-16T05:50:46.437Z,27.07
2018-12-16T05:53:20.330Z,27.93
2018-12-16T05:55:58.360Z,27.23
2018-12-16T05:58:36.586Z,27.50
2018-12-16T06:01:10.528Z,27.97
2018-12-16T06:03:44.759Z,26.60
2018-12-16T06:06:18.711Z,28.13
2018-12-16T06:08:52.631Z,28.37
2018-12-16T06:11:26.740Z,27.33
2018-12-16T06:14:00.599Z,28.33
2018-12-16T06:16:35.820Z,28.57
2018-12-16T06:19:10.695Z,30.47
2018-12-16T06:21:44.831Z,25.77
2018-12-16T06:24:22.805Z,26.33
2018-12-16T06:26:56.748Z,27.33
2018-12-16T06:32:04.129Z,28.20
2018-12-16T06:34:38.022Z,30.53
2018-12-16T06:37:11.871Z,28.23
2018-12-16T06:39:49.761Z,28.07
2018-12-16T06:42:23.740Z,30.63
2018-12-16T06:44:58.484Z,28.17
2018-12-16T06:47:32.748Z,28.97
2018-12-16T06:50:08.144Z,29.87
2018-12-16T06:52:42.298Z,30.47
2018-12-16T06:55:16.413Z,26.03
2018-12-16T06:57:50.472Z,28.43
2018-12-16T07:00:25.174Z,25.40
2018-12-16T07:02:59.701Z,26.60
2018-12-16T07:05:33.702Z,28.13
2018-12-16T07:08:08.330Z,29.43
2018-12-16T07:10:42.565Z,30.97
2018-12-16T07:13:17.351Z,27.70
2018-12-16T07:15:51.849Z,26.43
2018-12-16T07:18:25.818Z,25.00
2018-12-16T07:21:00.163Z,27.07
2018-12-16T07:23:34.279Z,28.53
2018-12-16T07:26:08.557Z,27.40
2018-12-16T07:28:43.554Z,25.97
2018-12-16T07:31:17.405Z,25.60
2018-12-16T07:38:57.372Z,26.23
2018-12-16T07:41:31.297Z,24.80
2018-12-16T07:44:05.463Z,27.23
2018-12-16T07:46:39.470Z,27.93
2018-12-16T07:49:13.730Z,54.00
2018-12-16T07:51:47.995Z,31.67
2018-12-16T07:54:22.203Z,27.10
2018-12-16T07:56:56.548Z,26.47
2018-12-16T07:59:31.256Z,30.80
2018-12-16T08:02:05.431Z,24.57
2018-12-16T08:04:39.380Z,24.67
2018-12-16T08:07:13.628Z,23.30
2018-12-16T08:09:48.419Z,24.10
2018-12-16T08:12:22.629Z,24.80
2018-12-16T08:14:56.843Z,27.57
2018-12-16T08:17:31.540Z,24.93
2018-12-16T08:20:06.859Z,23.17
2018-12-16T08:22:41.005Z,25.50
2018-12-16T08:25:15.316Z,21.57
2018-12-16T08:27:53.457Z,21.23
2018-12-16T08:30:27.521Z,25.87
2018-12-16T08:33:05.687Z,24.53
2018-12-16T08:35:39.975Z,24.10
2018-12-16T08:38:14.283Z,23.60
2018-12-16T08:40:48.708Z,23.63
2018-12-16T08:43:22.909Z,27.33
2018-12-16T08:45:56.843Z,29.97
2018-12-16T08:48:30.995Z,27.17
2018-12-16T08:51:09.148Z,23.90
2018-12-16T08:53:44.034Z,25.90
2018-12-16T08:56:17.990Z,22.87
2018-12-16T08:58:52.265Z,23.83
2018-12-16T09:01:26.095Z,27.50
2018-12-16T09:04:00.836Z,27.03
2018-12-16T09:06:35.995Z,25.93
2018-12-16T09:09:11.309Z,25.17
2018-12-16T09:11:45.868Z,25.80
2018-12-16T09:14:19.959Z,25.97
2018-12-16T09:16:54.108Z,21.07
2018-12-16T09:19:28.192Z,24.37
2018-12-16T09:22:03.179Z,24.43
2018-12-16T09:24:37.651Z,23.37
2018-12-16T09:27:12.416Z,24.50
2018-12-16T09:29:46.573Z,27.03
2018-12-16T09:32:24.541Z,25.13
2018-12-16T09:34:58.532Z,23.43
2018-12-16T09:37:32.658Z,22.63
2018-12-16T09:40:08.028Z,25.20
2018-12-16T09:55:29.946Z,27.10
2018-12-16T09:58:04.029Z,26.70
2018-12-16T10:00:38.264Z,23.80
2018-12-16T10:03:14.360Z,25.60
2018-12-16T10:05:52.732Z,24.77
2018-12-16T10:08:28.110Z,31.10
2018-12-16T10:11:02.651Z,30.13
2018-12-16T10:13:36.743Z,27.10
2018-12-16T10:16:11.103Z,23.13
2018-12-16T10:18:45.215Z,23.13
2018-12-16T10:21:19.453Z,24.00
2018-12-16T10:23:53.453Z,26.17
2018-12-16T10:26:27.598Z,27.07
2018-12-16T10:29:05.693Z,34.27
2018-12-16T10:31:39.907Z,31.83
2018-12-16T10:34:14.077Z,44.47
2018-12-16T10:36:48.205Z,28.20
2018-12-16T10:39:23.435Z,31.77
2018-12-16T10:41:58.181Z,21.47
2018-12-16T10:44:32.599Z,21.23
2018-12-16T10:47:07.590Z,30.60
2018-12-16T10:49:41.618Z,27.63
2018-12-16T10:52:15.932Z,21.97
2018-12-16T11:02:29.679Z,18.27
2018-12-16T11:05:04.555Z,20.43
2018-12-16T11:07:38.774Z,17.63
2018-12-16T11:10:14.684Z,20.20
2018-12-16T11:12:49.078Z,17.77
2018-12-16T11:15:23.841Z,17.07
2018-12-16T11:17:58.686Z,16.90
2018-12-16T11:20:36.800Z,24.67
2018-12-16T11:23:11.886Z,43.50
2018-12-16T11:25:52.091Z,52.30
2018-12-16T11:28:30.998Z,25.33
2018-12-16T11:31:05.237Z,49.77
2018-12-16T11:33:39.521Z,73.90
2018-12-16T11:36:14.388Z,42.00
2018-12-16T11:38:48.476Z,14.30
2018-12-16T11:41:22.589Z,18.33
2018-12-16T11:43:56.616Z,14.60
2018-12-16T11:46:31.157Z,15.13
2018-12-16T11:49:06.074Z,16.57
2018-12-16T11:51:40.564Z,15.07
2018-12-16T11:54:14.897Z,18.77
2018-12-16T11:56:49.645Z,14.73
2018-12-16T11:59:23.638Z,18.80
2018-12-16T12:01:57.779Z,18.70
2018-12-16T12:04:32.372Z,14.87
2018-12-16T12:07:07.243Z,15.30
2018-12-16T12:09:41.229Z,17.33
2018-12-16T12:12:15.430Z,17.10
2018-12-16T12:14:49.532Z,17.40
2018-12-16T12:17:23.631Z,63.53
2018-12-16T12:19:57.646Z,17.47
2018-12-16T12:22:32.411Z,35.67
2018-12-16T12:25:06.906Z,17.10
2018-12-16T12:27:41.348Z,19.90
2018-12-16T12:30:15.811Z,16.60
2018-12-16T12:32:50.639Z,18.60
2018-12-16T12:35:25.660Z,17.77
2018-12-16T12:38:01.180Z,18.63
2018-12-16T12:40:39.362Z,17.93
2018-12-16T12:43:13.450Z,20.67
2018-12-16T12:45:48.769Z,17.53
2018-12-16T12:48:22.892Z,22.60
2018-12-16T12:50:56.998Z,28.63
2018-12-16T12:53:31.092Z,19.57
2018-12-16T12:56:06.133Z,19.70
2018-12-16T12:58:40.380Z,18.20
2018-12-16T13:01:18.423Z,23.20
2018-12-16T13:03:52.367Z,19.77
2018-12-16T13:06:26.756Z,22.10
2018-12-16T13:09:01.579Z,18.67
2018-12-16T13:11:35.632Z,22.10
2018-12-16T13:14:09.696Z,21.03
2018-12-16T13:16:43.949Z,25.57
2018-12-16T13:19:19.120Z,22.40
2018-12-16T13:21:58.523Z,23.10
2018-12-16T13:24:33.432Z,23.13
2018-12-16T13:27:07.587Z,22.53
2018-12-16T13:29:41.896Z,21.83
2018-12-16T13:32:16.788Z,26.00
2018-12-16T13:34:51.010Z,22.93
2018-12-16T13:37:29.358Z,31.07
2018-12-16T13:40:04.277Z,22.67
2018-12-16T13:42:38.611Z,24.07
2018-12-16T13:45:13.648Z,29.23
2018-12-16T13:47:48.660Z,25.50
2018-12-16T13:50:26.663Z,27.43
2018-12-16T13:53:01.582Z,28.47
2018-12-16T13:55:40.841Z,27.83
2018-12-16T13:58:12.194Z,31.80
2018-12-16T14:00:47.112Z,26.37
2018-12-16T14:03:25.215Z,28.40
2018-12-16T14:05:59.888Z,26.93
2018-12-16T14:08:34.338Z,26.60
2018-12-16T14:11:09.300Z,31.83
2018-12-16T14:13:43.380Z,25.67
2018-12-16T14:16:17.472Z,28.87
2018-12-16T14:18:51.702Z,32.90
2018-12-16T14:21:25.939Z,31.17
2018-12-16T14:24:04.312Z,32.17
2018-12-16T14:26:42.893Z,33.47
2018-12-16T14:29:17.913Z,29.67
2018-12-16T14:31:52.034Z,30.03
2018-12-16T14:34:26.124Z,28.83
2018-12-16T14:37:01.124Z,32.70
2018-12-16T14:39:36.176Z,35.17
2018-12-16T14:42:10.481Z,37.03
2018-12-16T14:44:45.441Z,35.83
2018-12-16T14:47:19.723Z,35.57
2018-12-16T14:49:54.597Z,35.93
2018-12-16T14:52:28.711Z,37.70
2018-12-16T14:55:08.441Z,42.00
2018-12-16T14:57:43.165Z,65.10
2018-12-16T15:00:18.199Z,70.67
2018-12-16T15:02:56.339Z,69.93
2018-12-16T15:05:30.366Z,81.00
2018-12-16T15:08:04.761Z,48.70
2018-12-16T15:10:39.678Z,58.53
2018-12-16T15:13:13.781Z,52.83
2018-12-16T15:15:47.998Z,69.90
2018-12-16T15:18:26.833Z,70.70
2018-12-16T15:21:01.292Z,68.17
2018-12-16T15:23:37.369Z,75.47
2018-12-16T15:26:12.960Z,70.87
2018-12-16T15:28:47.403Z,68.73
2018-12-16T15:31:21.606Z,66.90
2018-12-16T15:33:55.591Z,60.83
2018-12-16T15:36:33.684Z,65.67
2018-12-16T15:39:08.974Z,54.90
2018-12-16T15:41:43.100Z,49.97
2018-12-16T15:44:17.140Z,44.17
2018-12-16T15:46:56.077Z,65.77
2018-12-16T15:49:31.087Z,52.03
2018-12-16T15:52:05.693Z,48.63
2018-12-16T15:54:41.183Z,42.90
2018-12-16T15:57:15.763Z,45.43
2018-12-16T15:59:50.126Z,48.60
2018-12-16T16:02:24.957Z,48.30
2018-12-16T16:04:59.925Z,47.07
2018-12-16T16:07:35.628Z,47.10
2018-12-16T16:10:10.422Z,43.73
2018-12-16T16:12:49.227Z,120.70
2018-12-16T16:15:23.527Z,79.63
2018-12-16T16:17:58.221Z,49.33
2018-12-16T16:20:32.596Z,45.20
2018-12-16T16:23:06.965Z,46.23
2018-12-16T16:25:41.652Z,39.77
2018-12-16T16:28:15.723Z,47.97
2018-12-16T16:30:54.414Z,46.17
2018-12-16T16:33:29.115Z,49.70
2018-12-16T16:36:04.031Z,43.37
2018-12-16T16:38:38.435Z,47.23
2018-12-16T16:41:12.495Z,54.83
2018-12-16T16:43:46.669Z,49.70
2018-12-16T16:46:21.708Z,56.13
2018-12-16T16:48:56.078Z,49.57
2018-12-16T16:51:30.721Z,53.30
2018-12-16T16:54:05.094Z,56.40
2018-12-16T16:56:39.886Z,41.53
2018-12-16T16:59:14.283Z,49.93
2018-12-16T17:01:49.000Z,47.07
2018-12-16T17:04:23.690Z,54.17
2018-12-16T17:06:57.770Z,56.67
2018-12-16T17:09:33.353Z,44.97
2018-12-16T17:12:12.070Z,43.83
2018-12-16T17:14:47.120Z,46.63
2018-12-16T17:17:21.318Z,50.20
2018-12-16T17:19:56.426Z,54.93
2018-12-16T17:22:31.455Z,45.87
2018-12-16T17:25:08.800Z,44.87
2018-12-16T17:27:43.705Z,47.60
2018-12-16T17:30:18.705Z,46.67
2018-12-16T17:32:52.887Z,57.40
2018-12-16T17:35:28.154Z,49.97
2018-12-16T17:38:03.165Z,64.47
2018-12-16T17:40:38.196Z,61.53
2018-12-16T17:43:13.132Z,53.77
2018-12-16T17:45:47.633Z,71.20
2018-12-16T17:48:21.714Z,68.33
2018-12-16T17:50:56.839Z,54.77
2018-12-16T17:53:31.665Z,66.20
2018-12-16T17:56:06.303Z,66.27
2018-12-16T17:58:41.155Z,51.57
2018-12-16T18:01:16.120Z,61.13
2018-12-16T18:03:50.184Z,54.10
2018-12-16T18:06:24.175Z,59.13
2018-12-16T18:08:58.465Z,59.57
2018-12-16T18:11:37.437Z,62.23
2018-12-16T18:14:16.382Z,44.27
2018-12-16T18:16:50.720Z,43.70
2018-12-16T18:19:25.033Z,52.03
2018-12-16T18:22:01.397Z,46.73
2018-12-16T18:24:36.342Z,39.27
2018-12-16T18:27:11.248Z,46.03
2018-12-16T18:29:46.253Z,42.63
2018-12-16T18:32:20.429Z,41.33
2018-12-16T18:34:58.566Z,39.43
2018-12-16T18:37:33.585Z,40.60
2018-12-16T18:40:08.541Z,42.23
2018-12-16T18:42:42.998Z,42.33
2018-12-16T18:45:17.175Z,37.77
2018-12-16T18:47:51.420Z,46.87
2018-12-16T18:50:25.757Z,47.70
2018-12-16T18:52:59.917Z,59.20
2018-12-16T18:55:34.843Z,46.03
2018-12-16T18:58:13.431Z,54.70
2018-12-16T19:00:48.396Z,47.90
2018-12-16T19:03:23.221Z,49.93
2018-12-16T19:05:57.443Z,58.27
2018-12-16T19:08:31.861Z,68.57
2018-12-16T19:11:06.891Z,73.17
2018-12-16T19:13:41.095Z,67.53
2018-12-16T19:16:15.154Z,66.13
2018-12-16T19:18:49.790Z,76.30
2018-12-16T19:21:24.215Z,61.67
2018-12-16T19:23:58.366Z,67.57
2018-12-16T19:26:36.770Z,64.87
2018-12-16T19:29:11.704Z,58.83
2018-12-16T19:31:46.758Z,62.97
2018-12-16T19:34:21.157Z,62.10
2018-12-16T19:36:55.264Z,56.77
2018-12-16T19:39:33.768Z,50.47
2018-12-16T19:42:08.690Z,48.40
2018-12-16T19:44:42.859Z,52.53
2018-12-16T19:47:21.006Z,79.53
2018-12-16T19:49:55.087Z,53.83
2018-12-16T19:52:29.220Z,59.87
2018-12-16T19:55:03.606Z,62.43
2018-12-16T19:57:37.931Z,62.00
2018-12-16T20:00:12.468Z,62.67
2018-12-16T20:02:46.791Z,59.27
2018-12-16T20:05:23.664Z,55.63
2018-12-16T20:07:58.384Z,62.10
2018-12-16T20:10:33.291Z,57.73
2018-12-16T20:13:08.196Z,64.00
2018-12-16T20:15:43.216Z,56.43
2018-12-16T20:18:17.499Z,68.53
2018-12-16T20:20:56.725Z,54.23
2018-12-16T20:23:31.407Z,55.37
2018-12-16T20:26:06.095Z,58.83
2018-12-16T20:28:41.023Z,54.60
2018-12-16T20:31:16.292Z,59.23
2018-12-16T20:33:51.441Z,63.83
2018-12-16T20:36:26.333Z,112.93
2018-12-16T20:39:00.461Z,68.80
2018-12-16T20:41:35.602Z,63.03
2018-12-16T20:44:11.414Z,66.33
2018-12-16T20:46:46.445Z,52.20
2018-12-16T20:49:20.901Z,43.50
2018-12-16T20:51:56.045Z,45.40
2018-12-16T20:54:31.979Z,46.07
2018-12-16T20:57:06.719Z,45.70
2018-12-16T20:59:41.582Z,50.93
2018-12-16T21:02:16.765Z,46.43
2018-12-16T21:04:56.052Z,53.27
2018-12-16T21:07:31.213Z,44.60
2018-12-16T21:10:10.334Z,47.73
2018-12-16T21:12:49.352Z,55.57
2018-12-16T21:15:29.375Z,50.67
2018-12-16T21:18:08.357Z,54.63
2018-12-16T21:20:47.361Z,59.10
2018-12-16T21:23:22.482Z,59.23
2018-12-16T21:25:57.757Z,60.57
2018-12-16T21:28:33.035Z,75.97
2018-12-16T21:31:08.070Z,64.97
2018-12-16T21:33:43.070Z,73.60
2018-12-16T21:36:18.180Z,52.77
2018-12-16T21:38:52.356Z,64.33
2018-12-16T21:41:26.607Z,54.87
2018-12-16T21:44:01.442Z,51.87
2018-12-16T21:46:36.795Z,47.37
2018-12-16T21:49:11.816Z,52.43
2018-12-16T21:51:46.770Z,46.77
2018-12-16T21:54:21.831Z,48.40
2018-12-16T21:56:55.866Z,44.63
2018-12-16T21:59:31.041Z,44.87
2018-12-16T22:02:06.212Z,51.33
2018-12-16T22:04:40.294Z,74.93
2018-12-16T22:07:15.515Z,61.43
2018-12-16T22:09:51.322Z,55.77
2018-12-16T22:12:25.755Z,48.77
2018-12-16T22:15:00.030Z,48.93
2018-12-16T22:17:35.738Z,57.63
2018-12-16T22:20:10.457Z,52.30
2018-12-16T22:22:45.431Z,54.77
2018-12-16T22:25:19.735Z,58.30
2018-12-16T22:27:54.753Z,47.57
2018-12-16T22:30:29.237Z,48.63
2018-12-16T22:33:04.585Z,48.90
2018-12-16T22:35:39.595Z,44.50
2018-12-16T22:38:14.877Z,45.73
2018-12-16T22:40:49.795Z,45.77
2018-12-16T22:43:25.095Z,46.40
2018-12-16T22:45:59.885Z,45.83
2018-12-16T22:48:38.020Z,45.97
2018-12-16T22:51:13.277Z,57.00
2018-12-16T22:53:47.499Z,55.97
2018-12-16T22:56:21.501Z,52.27
2018-12-16T22:58:56.520Z,62.93
2018-12-16T23:01:31.793Z,51.07
2018-12-16T23:04:10.128Z,46.23
2018-12-16T23:06:44.089Z,46.57
2018-12-16T23:09:18.710Z,43.80
2018-12-16T23:11:52.885Z,50.60
2018-12-16T23:14:27.310Z,43.40
2018-12-16T23:17:05.614Z,47.17
2018-12-16T23:19:39.728Z,47.73
2018-12-16T23:22:14.428Z,43.53
2018-12-16T23:24:53.323Z,45.73
2018-12-16T23:27:31.288Z,41.80
2018-12-16T23:30:10.104Z,45.97
2018-12-16T23:32:48.856Z,44.57
2018-12-16T23:35:23.649Z,46.93
2018-12-16T23:37:57.691Z,44.93
2018-12-16T23:40:38.953Z,49.87
2018-12-16T23:43:13.718Z,46.50
2018-12-16T23:45:48.140Z,47.53
2018-12-16T23:48:22.362Z,43.13
2018-12-16T23:50:56.423Z,42.00
2018-12-16T23:53:30.464Z,44.17
2018-12-16T23:56:04.724Z,46.63
2018-12-16T23:58:38.694Z,50.77
